Pontoon, Arkansas
Current Conditions -  °F | °C
As of 7:53 PM on Monday 24 Nov 2014 (Local Time) from KRUE Reporting Station
Clear Clear  
Wind Chill: 45°   Ceiling: Unl
Heat Index: 45°   Visibility: 10mi
Dew Point: 27°   Wind: 3mph
Humidity: 49%   Direction: 280°W
Pressure: 30.04"   Gusts: NA
Location:  35.031°N, 93.0373°W
Report Text: KRUE 250153Z AUTO 28003KT 10SM CLR 07/M03 A3004 RMK AO2 SLP169 T00721028
Loading
Personal Weather Stations






























Interactive Weather Map New forecast layout! Learn more

10-Day Weather Forecast

Advertisements
Track Severe Weather on mobile